Time;durP1;ratioP1;P1;durP2;ratioP2;P2;SDS_P1;SDS_P2;PMS_P1;PMS_P2;Temp;Humidity;BMP_temperature;BMP_pressure;BME280_temperature;BME280_humidity;BME280_pressure;Samples;Min_cycle;Max_cycle;Signal;HPM_P1;HPM_P2
2022/09/04 00:01:20;;;;;;;7.45;5.28;;;;;;;16.10;63.71;100539.81;6037811;23;97307;-82
2022/09/04 00:03:59;;;;;;;10.35;5.13;;;;;;;16.04;63.67;100540.16;6033233;23;101111;-79
2022/09/04 00:06:32;;;;;;;9.05;5.05;;;;;;;16.01;63.43;100551.75;6012157;23;100878;-79
2022/09/04 00:09:17;;;;;;;9.32;5.68;;;;;;;15.93;64.07;100546.00;6036098;23;96743;-80
2022/09/04 00:11:52;;;;;;;7.72;5.10;;;;;;;15.94;64.28;100547.72;6036903;23;97392;-79
2022/09/04 00:14:23;;;;;;;7.82;5.13;;;;;;;15.93;64.13;100555.72;6012927;23;101817;-79
2022/09/04 00:16:53;;;;;;;;;;;;;;;15.94;63.97;100547.72;6034604;23;101280;-80
2022/09/04 00:19:32;;;;;;;8.02;5.18;;;;;;;15.83;64.04;100548.28;6012866;23;97404;-79
2022/09/04 00:21:59;;;;;;;10.45;5.60;;;;;;;15.86;64.27;100549.91;6036364;23;97225;-80
2022/09/04 00:24:37;;;;;;;9.05;5.35;;;;;;;15.90;63.98;100547.97;6036463;23;101317;-80
2022/09/04 00:27:23;;;;;;;9.20;4.85;;;;;;;15.88;64.00;100542.72;6037550;23;100182;-80
2022/09/04 00:30:10;;;;;;;8.43;5.03;;;;;;;15.84;63.97;100543.84;6060702;23;97231;-82
2022/09/04 00:32:50;;;;;;;10.00;5.25;;;;;;;15.86;63.74;100552.56;6036473;23;96764;-80
2022/09/04 00:35:21;;;;;;;8.77;5.10;;;;;;;15.76;64.43;100543.38;6035988;23;101477;-80
2022/09/04 00:37:57;;;;;;;10.40;5.30;;;;;;;15.70;64.32;100541.06;6036320;23;101221;-80
2022/09/04 00:40:42;;;;;;;9.27;5.30;;;;;;;15.78;64.35;100560.88;6035105;23;97127;-80
2022/09/04 00:43:24;;;;;;;8.07;4.93;;;;;;;15.80;64.33;100555.53;6012878;23;96964;-79
2022/09/04 00:46:11;;;;;;;6.22;4.82;;;;;;;15.75;64.09;100557.56;6060343;23;101807;-80
2022/09/04 00:48:55;;;;;;;8.02;5.78;;;;;;;15.73;64.46;100560.25;6012102;23;101064;-80
2022/09/04 00:51:36;;;;;;;8.07;5.03;;;;;;;15.73;64.13;100568.22;6039060;23;97245;-80
2022/09/04 00:54:32;;;;;;;7.90;5.10;;;;;;;15.65;64.57;100559.81;6041512;23;96978;-81
2022/09/04 00:57:46;;;;;;;11.80;4.95;;;;;;;15.60;64.72;100564.47;6063662;23;101755;-80
2022/09/04 01:00:16;;;;;;;8.07;5.20;;;;;;;15.43;65.09;100556.53;6019254;23;97922;-80
2022/09/04 01:02:48;;;;;;;8.40;4.97;;;;;;;15.60;64.76;100578.53;6038724;23;97539;-80
2022/09/04 01:05:44;;;;;;;10.35;5.22;;;;;;;15.55;64.65;100567.31;6062928;23;97289;-81
2022/09/04 01:08:46;;;;;;;7.95;5.55;;;;;;;15.56;65.01;100574.34;6015368;23;101174;-81
2022/09/04 01:11:30;;;;;;;9.85;5.10;;;;;;;15.52;64.82;100569.28;6040606;23;101705;-80
2022/09/04 01:14:22;;;;;;;6.53;4.68;;;;;;;15.40;65.21;100563.66;6014282;23;97364;-80
2022/09/04 01:17:11;;;;;;;11.75;4.93;;;;;;;15.49;65.09;100580.88;6013688;23;97030;-81
2022/09/04 01:20:02;;;;;;;8.30;5.28;;;;;;;15.43;65.23;100567.97;6063741;23;98351;-81
2022/09/04 01:22:59;;;;;;;10.02;5.18;;;;;;;15.48;65.13;100579.16;6016807;23;100704;-80
2022/09/04 01:25:46;;;;;;;9.05;5.38;;;;;;;15.48;65.00;100579.16;6064905;23;97227;-79
2022/09/04 01:28:49;;;;;;;11.02;5.03;;;;;;;15.48;65.17;100579.16;6062721;23;97070;-80
2022/09/04 01:31:29;;;;;;;6.85;5.13;;;;;;;15.45;65.07;100574.03;6061905;23;101757;-81
2022/09/04 01:34:23;;;;;;;9.07;5.68;;;;;;;15.37;65.24;100568.25;6062298;23;97452;-80
2022/09/04 01:36:49;;;;;;;8.07;4.97;;;;;;;15.46;65.09;100572.25;6017969;23;97139;-80
2022/09/04 01:39:16;;;;;;;10.63;5.43;;;;;;;15.34;65.59;100563.13;6034647;23;97103;-80
2022/09/04 01:41:46;;;;;;;8.57;5.05;;;;;;;15.35;65.38;100568.31;5986403;23;101452;-80
2022/09/04 01:44:11;;;;;;;8.70;4.75;;;;;;;15.31;65.17;100550.91;6010952;23;97899;-80
2022/09/04 01:46:59;;;;;;;7.68;4.90;;;;;;;15.27;65.43;100561.72;5983690;23;97454;-81
2022/09/04 01:49:31;;;;;;;8.18;4.95;;;;;;;15.35;65.04;100568.31;6035708;23;96765;-80
2022/09/04 01:52:15;;;;;;;8.85;5.22;;;;;;;15.32;65.33;100572.91;6009872;23;101785;-80
2022/09/04 01:55:02;;;;;;;8.63;5.35;;;;;;;15.22;65.47;100558.47;6034778;23;101144;-82
2022/09/04 01:57:31;;;;;;;9.75;5.70;;;;;;;15.16;65.57;100554.31;6034821;23;96844;-80
2022/09/04 02:00:07;;;;;;;10.23;5.38;;;;;;;15.16;65.65;100562.25;6010429;23;96985;-80
2022/09/04 02:02:54;;;;;;;10.13;5.68;;;;;;;15.18;65.72;100573.59;6009096;23;101446;-80
2022/09/04 02:05:29;;;;;;;11.07;6.00;;;;;;;15.15;66.07;100573.75;6031665;23;101405;-80
2022/09/04 02:08:42;;;;;;;9.85;5.10;;;;;;;15.02;66.04;100557.63;6008997;23;97084;-80
2022/09/04 02:11:15;;;;;;;7.88;5.32;;;;;;;15.11;66.29;100567.75;5903073;23;96822;-80
2022/09/04 02:14:05;;;;;;;9.60;5.45;;;;;;;15.12;65.92;100579.19;5983549;23;99304;-80
2022/09/04 02:16:55;;;;;;;9.15;5.47;;;;;;;15.10;66.31;100575.78;6008753;23;101462;-80
2022/09/04 02:19:46;;;;;;;8.25;5.25;;;;;;;15.05;66.41;100570.69;6008800;23;96647;-80
2022/09/04 02:22:17;;;;;;;8.75;5.80;;;;;;;15.06;66.09;100569.75;6030136;23;97500;-80
2022/09/04 02:24:50;;;;;;;;;;;;;;;15.05;66.25;100569.84;6006498;23;101416;-80
2022/09/04 02:27:28;;;;;;;8.20;4.95;;;;;;;15.00;66.21;100570.06;5984101;23;101220;-79
2022/09/04 02:29:53;;;;;;;11.50;5.90;;;;;;;14.93;66.41;100563.38;5985088;23;96681;-80
2022/09/04 02:32:28;;;;;;;8.38;5.75;;;;;;;14.88;66.89;100566.22;6059171;23;96706;-80
2022/09/04 02:35:02;;;;;;;11.13;6.10;;;;;;;14.92;66.77;100569.56;6032279;23;97509;-80
2022/09/04 02:37:33;;;;;;;6.60;5.38;;;;;;;14.89;66.70;100569.72;6006979;23;101454;-80
2022/09/04 02:40:31;;;;;;;;;;;;;;;14.85;67.14;100581.38;6032432;23;96670;-80
2022/09/04 02:43:11;;;;;;;9.18;5.50;;;;;;;14.82;67.19;100576.25;6008954;23;97330;-82
2022/09/04 02:45:44;;;;;;;11.23;5.82;;;;;;;14.80;67.09;100559.59;6056519;23;101431;-83
2022/09/04 02:48:33;;;;;;;8.80;5.15;;;;;;;14.88;66.71;100575.94;6008318;23;101011;-80
2022/09/04 02:51:17;;;;;;;10.02;5.47;;;;;;;14.86;66.74;100573.38;6032336;23;97104;-80
2022/09/04 02:53:53;;;;;;;10.57;5.80;;;;;;;14.81;66.92;100574.53;6030647;23;97177;-80
2022/09/04 02:56:54;;;;;;;10.25;5.35;;;;;;;14.76;67.28;100572.09;6006983;23;101101;-80
2022/09/04 02:59:41;;;;;;;10.07;5.45;;;;;;;14.85;67.04;100566.38;6031946;23;100990;-81
2022/09/04 03:02:30;;;;;;;8.60;5.15;;;;;;;14.69;67.47;100570.69;6032804;23;97153;-80
2022/09/04 03:05:03;;;;;;;8.07;5.68;;;;;;;14.79;66.86;100568.47;6007737;23;97295;-81
2022/09/04 03:07:39;;;;;;;8.70;5.80;;;;;;;14.65;67.25;100567.31;6008962;23;101672;-80
2022/09/04 03:10:19;;;;;;;10.50;6.22;;;;;;;14.61;67.61;100578.97;6009201;23;101331;-80
2022/09/04 03:13:09;;;;;;;9.82;5.93;;;;;;;14.63;67.74;100571.84;6007726;23;96633;-80
2022/09/04 03:15:43;;;;;;;11.15;5.53;;;;;;;14.63;67.44;100568.31;6031618;23;97011;-80
2022/09/04 03:18:29;;;;;;;10.20;5.60;;;;;;;14.57;67.78;100564.16;6031825;23;97553;-81
2022/09/04 03:21:01;;;;;;;8.55;5.40;;;;;;;14.53;67.88;100567.03;6058373;23;98037;-80
2022/09/04 03:23:38;;;;;;;10.57;5.60;;;;;;;14.48;67.84;100559.28;6033655;23;97136;-79
2022/09/04 03:26:20;;;;;;;9.10;5.28;;;;;;;14.46;67.82;100551.44;6033605;23;96780;-80
2022/09/04 03:29:01;;;;;;;7.18;5.10;;;;;;;14.46;68.05;100558.53;6008585;23;102004;-83
2022/09/04 03:32:05;;;;;;;8.17;5.20;;;;;;;14.50;67.57;100563.56;6055312;23;100824;-82
2022/09/04 03:34:54;;;;;;;7.55;4.93;;;;;;;14.38;68.40;100564.16;5987940;23;96993;-80
2022/09/04 03:37:36;;;;;;;6.85;4.95;;;;;;;14.36;68.26;100571.28;6061544;23;96896;-80
2022/09/04 03:40:20;;;;;;;9.35;5.65;;;;;;;14.35;68.20;100574.00;6013435;23;102057;-81
2022/09/04 03:43:04;;;;;;;8.23;5.55;;;;;;;14.29;67.83;100558.44;6061205;23;100970;-80
2022/09/04 03:46:09;;;;;;;8.18;5.20;;;;;;;14.30;68.61;100573.34;6036976;23;97199;-80
2022/09/04 03:48:46;;;;;;;11.60;5.50;;;;;;;14.33;68.35;100573.19;6036057;23;97296;-80
2022/09/04 03:51:37;;;;;;;7.15;5.38;;;;;;;14.18;68.42;100570.31;6037143;23;101576;-82
2022/09/04 03:54:24;;;;;;;10.48;6.15;;;;;;;14.20;68.54;100580.84;6037553;23;98302;-80
2022/09/04 03:57:18;;;;;;;8.00;5.70;;;;;;;14.31;68.22;100585.59;6013352;23;96982;-80
2022/09/04 03:59:53;;;;;;;10.00;5.70;;;;;;;14.07;68.82;100569.94;6061320;23;96857;-80
2022/09/04 04:02:33;;;;;;;8.25;5.10;;;;;;;14.13;68.80;100582.88;6037380;23;101188;-81
2022/09/04 04:05:02;;;;;;;10.63;6.00;;;;;;;14.05;68.41;100561.25;6034349;23;101941;-82
2022/09/04 04:07:36;;;;;;;8.32;5.45;;;;;;;14.14;68.66;100587.25;6061355;23;96937;-81
2022/09/04 04:10:32;;;;;;;8.48;5.63;;;;;;;14.13;68.46;100577.59;6037614;23;96909;-82
2022/09/04 04:13:15;;;;;;;8.25;5.25;;;;;;;14.17;68.68;100589.75;6035704;23;101533;-82
2022/09/04 04:16:18;;;;;;;9.25;5.15;;;;;;;14.18;68.52;100596.72;6059300;23;97381;-81
2022/09/04 04:18:56;;;;;;;7.65;5.20;;;;;;;14.13;68.19;100588.16;6035396;23;97011;-81
2022/09/04 04:21:56;;;;;;;9.90;5.18;;;;;;;14.16;68.54;100595.94;6010799;23;96922;-81
2022/09/04 04:24:56;;;;;;;9.55;5.82;;;;;;;14.12;68.72;100601.44;6012862;23;101378;-82
2022/09/04 04:27:43;;;;;;;9.52;5.55;;;;;;;14.14;68.59;100595.16;6035779;23;101485;-80
2022/09/04 04:30:13;;;;;;;8.02;5.57;;;;;;;14.11;68.61;100595.31;6036200;23;96888;-80
2022/09/04 04:33:10;;;;;;;8.73;5.38;;;;;;;14.17;69.05;100605.59;6035954;23;96886;-84
2022/09/04 04:36:00;;;;;;;10.32;5.47;;;;;;;14.20;68.51;100607.25;6007120;23;101039;-82
2022/09/04 04:38:32;;;;;;;8.48;5.10;;;;;;;14.19;68.63;100605.50;6008937;23;101465;-81
2022/09/04 04:41:22;;;;;;;8.55;5.63;;;;;;;14.18;68.36;100607.28;6031198;23;97795;-81
2022/09/04 04:43:55;;;;;;;6.43;4.35;;;;;;;14.17;68.62;100608.22;6008301;23;96818;-80
2022/09/04 04:46:33;;;;;;;8.48;5.85;;;;;;;14.17;68.92;100613.50;6007863;23;98114;-80
2022/09/04 04:49:04;;;;;;;9.90;4.93;;;;;;;14.14;68.11;100623.34;6007204;23;101942;-81
2022/09/04 04:52:02;;;;;;;9.63;4.95;;;;;;;14.11;68.62;100626.97;6058678;23;96794;-81
2022/09/04 04:55:06;;;;;;;8.45;5.63;;;;;;;14.12;68.61;100623.41;5975859;23;97014;-80
2022/09/04 04:58:01;;;;;;;7.95;4.95;;;;;;;14.24;68.38;100625.50;5953807;23;101495;-80
2022/09/04 05:00:41;;;;;;;10.15;5.30;;;;;;;14.51;67.69;100635.75;6012436;23;101134;-81
2022/09/04 05:03:35;;;;;;;10.82;5.90;;;;;;;14.76;67.05;100639.94;6007385;23;96661;-81
2022/09/04 05:06:24;;;;;;;8.35;5.13;;;;;;;14.85;66.65;100643.03;6008048;23;97168;-80
2022/09/04 05:09:09;;;;;;;8.30;5.05;;;;;;;15.15;65.80;100646.03;6006875;23;101453;-80
2022/09/04 05:11:41;;;;;;;7.28;5.68;;;;;;;15.19;65.20;100645.88;5984935;23;101148;-80
2022/09/04 05:14:10;;;;;;;8.45;5.18;;;;;;;15.06;65.84;100653.50;6030314;23;97645;-81
2022/09/04 05:16:51;;;;;;;8.10;5.60;;;;;;;15.13;65.88;100655.81;6006834;23;97260;-80
2022/09/04 05:19:22;;;;;;;6.90;5.18;;;;;;;14.99;65.76;100658.25;6031954;23;101537;-79
2022/09/04 05:22:32;;;;;;;8.32;4.95;;;;;;;15.03;65.74;100664.22;6007369;23;101040;-80
2022/09/04 05:25:01;;;;;;;9.43;5.18;;;;;;;14.97;66.22;100661.88;5930084;23;97215;-80
2022/09/04 05:27:48;;;;;;;8.60;5.88;;;;;;;14.88;65.99;100642.03;6008611;23;97171;-80
2022/09/04 05:30:17;;;;;;;10.88;5.53;;;;;;;14.96;66.04;100654.88;6032536;23;97885;-80
2022/09/04 05:32:54;;;;;;;8.88;5.28;;;;;;;14.89;66.41;100656.94;6005804;23;101207;-81
2022/09/04 05:35:40;;;;;;;8.38;5.28;;;;;;;14.97;66.29;100664.53;6032622;23;96806;-80
2022/09/04 05:38:08;;;;;;;9.55;5.55;;;;;;;14.97;65.92;100668.03;6037707;23;97376;-81
2022/09/04 05:40:52;;;;;;;7.53;5.32;;;;;;;15.07;65.98;100668.47;6062946;23;97990;-80
2022/09/04 05:43:51;;;;;;;7.43;5.50;;;;;;;15.01;66.22;100674.91;6036680;23;101126;-81
2022/09/04 05:46:50;;;;;;;7.93;5.20;;;;;;;14.94;66.42;100666.38;6014003;23;97305;-82
2022/09/04 05:49:53;;;;;;;7.30;5.18;;;;;;;15.06;66.27;100672.00;6061810;23;97657;-80
2022/09/04 05:52:31;;;;;;;7.53;5.20;;;;;;;15.13;66.40;100668.16;6036305;23;100676;-81
2022/09/04 05:55:18;;;;;;;9.68;5.95;;;;;;;14.97;66.05;100651.31;6036821;23;100751;-80
2022/09/04 05:58:16;;;;;;;8.10;5.32;;;;;;;15.10;66.26;100674.47;6061700;23;97099;-84
2022/09/04 06:01:13;;;;;;;7.53;5.57;;;;;;;15.17;65.94;100670.56;6036816;23;97283;-86
2022/09/04 06:03:58;;;;;;;10.82;5.65;;;;;;;15.43;65.63;100675.56;6036632;23;98087;-82
2022/09/04 06:06:54;;;;;;;7.90;5.85;;;;;;;15.38;65.63;100673.13;6011822;23;101386;-81
2022/09/04 06:09:27;;;;;;;8.95;5.97;;;;;;;15.60;65.07;100659.72;6036751;23;97216;-84
2022/09/04 06:12:20;;;;;;;8.57;5.88;;;;;;;15.58;65.64;100672.16;6060476;23;97380;-82
2022/09/04 06:14:56;;;;;;;8.70;6.68;;;;;;;15.56;65.17;100677.53;6035993;23;101364;-81
2022/09/04 06:17:31;;;;;;;10.13;5.97;;;;;;;15.42;65.29;100684.41;6036041;23;100927;-82
2022/09/04 06:20:25;;;;;;;7.32;5.28;;;;;;;15.38;65.91;100687.19;6060970;23;97227;-82
2022/09/04 06:23:09;;;;;;;10.55;6.63;;;;;;;15.39;65.88;100693.38;6061153;23;97225;-82
2022/09/04 06:26:07;;;;;;;9.25;7.05;;;;;;;15.37;65.61;100687.28;6037093;23;100997;-82
2022/09/04 06:29:01;;;;;;;8.82;6.78;;;;;;;15.42;65.77;100689.69;6026265;23;101564;-82
2022/09/04 06:31:48;;;;;;;9.52;6.78;;;;;;;15.48;65.55;100690.28;6013846;23;97399;-84
2022/09/04 06:34:45;;;;;;;8.30;6.80;;;;;;;15.61;65.58;100687.88;6037204;23;97099;-81
2022/09/04 06:37:28;;;;;;;9.65;7.75;;;;;;;15.59;65.15;100689.72;6037339;23;100152;-80
2022/09/04 06:40:07;;;;;;;10.93;6.72;;;;;;;15.58;65.60;100698.63;6087799;23;97684;-81
2022/09/04 06:42:45;;;;;;;7.68;6.03;;;;;;;15.58;65.32;100695.97;6013236;23;96563;-82
2022/09/04 06:45:19;;;;;;;6.78;5.30;;;;;;;15.52;65.02;100702.41;6037698;23;96716;-82
2022/09/04 06:48:08;;;;;;;9.38;5.13;;;;;;;15.46;65.08;100700.06;6038123;23;101446;-84
2022/09/04 06:50:54;;;;;;;6.93;4.70;;;;;;;15.61;64.91;100707.25;6039191;23;97533;-83
2022/09/04 06:53:26;;;;;;;7.75;5.00;;;;;;;15.77;64.56;100709.19;6038835;23;97231;-81
2022/09/04 06:56:24;;;;;;;6.53;5.30;;;;;;;16.16;63.76;100716.06;6038037;23;97425;-81
2022/09/04 06:58:55;;;;;;;8.38;5.20;;;;;;;18.93;56.74;100708.34;6038161;23;99315;-83
2022/09/04 07:01:51;;;;;;;10.90;4.95;;;;;;;21.75;49.59;100706.84;6037765;23;101104;-81
2022/09/04 07:04:42;;;;;;;6.85;4.95;;;;;;;23.10;46.29;100699.13;6062252;23;97130;-84
2022/09/04 07:07:33;;;;;;;7.43;4.63;;;;;;;24.69;42.81;100697.47;6062145;23;97126;-79
2022/09/04 07:10:00;;;;;;;;;;;;;;;23.97;43.94;100701.81;6014410;23;101483;-80
2022/09/04 07:13:18;;;;;;;8.65;4.80;;;;;;;26.24;40.28;100702.28;6014023;23;101106;-79
2022/09/04 07:16:04;;;;;;;7.28;4.50;;;;;;;25.42;40.90;100703.53;5983748;23;97498;-80
2022/09/04 07:18:46;;;;;;;10.65;4.30;;;;;;;25.05;41.23;100710.34;6035710;23;97215;-81
2022/09/04 07:21:23;;;;;;;6.45;3.85;;;;;;;24.29;42.47;100701.75;6061043;23;102206;-82
2022/09/04 07:24:29;;;;;;;8.57;4.68;;;;;;;22.31;46.99;100708.88;6035228;23;101110;-81
2022/09/04 07:27:19;;;;;;;7.88;4.60;;;;;;;21.73;47.79;100711.47;6058527;23;98250;-81
2022/09/04 07:29:57;;;;;;;5.35;4.20;;;;;;;24.02;43.58;100707.63;6035188;23;96985;-87
2022/09/04 07:32:55;;;;;;;7.15;4.97;;;;;;;26.97;37.83;100714.13;6059225;23;98022;-80
2022/09/04 07:35:33;;;;;;;6.88;5.00;;;;;;;27.95;36.03;100701.72;6033330;23;97325;-80
2022/09/04 07:38:19;;;;;;;5.90;4.60;;;;;;;28.57;35.11;100706.28;6036517;23;96958;-83
2022/09/04 07:40:52;;;;;;;6.15;4.30;;;;;;;29.38;34.29;100703.09;6011335;23;97263;-85
2022/09/04 07:43:22;;;;;;;6.05;4.28;;;;;;;30.49;33.37;100715.38;6036246;23;102033;-83
2022/09/04 07:46:43;;;;;;;6.45;4.70;;;;;;;30.60;32.22;100707.72;6039412;23;100839;-93
2022/09/04 07:49:18;;;;;;;7.38;4.30;;;;;;;30.75;31.71;100712.38;5873152;23;96832;-86
2022/09/04 07:52:06;;;;;;;7.18;4.25;;;;;;;30.34;32.37;100710.66;6037104;23;97138;-84
2022/09/04 07:54:42;;;;;;;6.85;4.43;;;;;;;30.74;31.70;100713.41;6037752;23;98220;-88
2022/09/04 07:57:13;;;;;;;4.72;4.00;;;;;;;30.83;31.72;100709.69;6036863;23;97785;-84
2022/09/04 07:59:59;;;;;;;6.43;4.13;;;;;;;31.65;31.15;100709.28;6063553;23;96585;-94
2022/09/04 08:02:36;;;;;;;5.40;4.45;;;;;;;30.95;31.23;100697.47;6013886;23;96907;-85
2022/09/04 08:05:25;;;;;;;;;;;;;;;31.42;30.98;100709.28;6057634;23;101671;-81
2022/09/04 08:08:10;;;;;;;7.90;4.20;;;;;;;30.70;31.93;100715.63;6038384;23;101488;-82
2022/09/04 08:10:44;;;;;;;5.82;4.03;;;;;;;30.00;32.84;100714.34;5998115;23;97153;-82
2022/09/04 08:13:33;;;;;;;4.68;3.75;;;;;;;29.98;33.48;100710.13;6035484;23;96845;-81
2022/09/04 08:16:11;;;;;;;5.30;4.07;;;;;;;29.84;33.38;100714.34;6084730;23;97973;-83
2022/09/04 08:19:00;;;;;;;6.80;4.10;;;;;;;29.61;33.50;100706.00;6060775;23;97493;-83
2022/09/04 08:21:35;;;;;;;5.68;3.92;;;;;;;30.05;32.68;100719.25;6035326;23;97113;-80
2022/09/04 08:24:27;;;;;;;6.63;3.95;;;;;;;30.14;33.14;100725.53;6035535;23;97190;-80
2022/09/04 08:27:20;;;;;;;5.05;4.10;;;;;;;30.06;32.68;100730.94;6020283;23;101325;-80
2022/09/04 08:30:03;;;;;;;6.05;4.63;;;;;;;30.48;33.02;100738.88;6059752;23;101103;-81
2022/09/04 08:32:53;;;;;;;5.75;4.28;;;;;;;30.14;32.86;100745.31;6059463;23;96992;-81
2022/09/04 08:35:33;;;;;;;6.05;3.50;;;;;;;30.42;33.20;100748.53;6059640;23;96728;-80
2022/09/04 08:38:08;;;;;;;3.97;3.42;;;;;;;30.48;32.67;100749.69;6035153;23;101262;-80
2022/09/04 08:40:52;;;;;;;6.30;4.28;;;;;;;29.82;33.44;100743.44;6061207;23;97598;-79
2022/09/04 08:43:26;;;;;;;5.65;4.38;;;;;;;29.95;33.13;100732.94;6060597;23;97085;-81
2022/09/04 08:46:30;;;;;;;4.07;3.67;;;;;;;30.08;33.17;100745.13;6057018;23;97431;-80
2022/09/04 08:49:15;;;;;;;6.53;4.22;;;;;;;30.05;32.65;100740.91;6058448;23;97502;-80
2022/09/04 08:52:03;;;;;;;5.32;3.53;;;;;;;30.23;32.87;100755.16;6036091;23;101233;-81
2022/09/04 08:54:57;;;;;;;5.35;3.55;;;;;;;30.24;32.60;100747.88;6036162;23;96929;-81
2022/09/04 08:57:42;;;;;;;4.53;4.00;;;;;;;29.94;32.97;100760.19;6035744;23;97311;-80
2022/09/04 09:00:16;;;;;;;8.27;3.65;;;;;;;30.02;33.17;100757.50;6060454;23;98160;-83
2022/09/04 09:03:03;;;;;;;4.63;3.60;;;;;;;30.09;33.48;100758.50;6012357;23;101031;-78
2022/09/04 09:05:48;;;;;;;4.30;3.75;;;;;;;30.35;32.59;100771.06;6036662;23;96709;-81
2022/09/04 09:08:35;;;;;;;6.22;4.00;;;;;;;30.21;33.02;100764.44;6087523;23;97022;-80
2022/09/04 09:11:25;;;;;;;9.23;4.03;;;;;;;30.83;32.67;100759.31;6036924;23;101595;-81
2022/09/04 09:14:21;;;;;;;4.55;3.28;;;;;;;30.84;31.94;100757.47;6087545;23;97556;-88
2022/09/04 09:17:11;;;;;;;4.05;3.28;;;;;;;31.26;31.84;100761.69;6037834;23;97335;-85
2022/09/04 09:19:43;;;;;;;5.03;3.45;;;;;;;31.01;32.27;100769.94;6064241;23;96654;-86
2022/09/04 09:22:47;;;;;;;5.47;3.20;;;;;;;31.13;30.99;100773.97;6038487;23;101253;-86
2022/09/04 09:25:41;;;;;;;5.53;3.58;;;;;;;31.23;31.25;100762.88;5983340;23;101119;-83
2022/09/04 09:28:40;;;;;;;5.15;3.35;;;;;;;31.08;31.82;100768.22;5995740;23;97154;-84
2022/09/04 09:31:40;;;;;;;6.30;4.00;;;;;;;31.08;31.02;100775.50;6038374;23;97029;-84
2022/09/04 09:34:10;;;;;;;5.30;3.47;;;;;;;31.33;31.50;100762.69;6037951;23;101536;-84
2022/09/04 09:37:09;;;;;;;5.80;3.90;;;;;;;31.54;31.41;100752.09;6063143;23;101443;-84
2022/09/04 09:40:12;;;;;;;4.35;3.42;;;;;;;31.44;31.75;100767.72;6062064;23;96931;-82
2022/09/04 09:42:48;;;;;;;3.83;3.35;;;;;;;31.76;31.01;100772.13;6061277;23;97089;-82
2022/09/04 09:45:35;;;;;;;7.97;3.17;;;;;;;31.70;31.03;100766.56;6059689;23;98731;-83
2022/09/04 09:48:16;;;;;;;5.28;3.00;;;;;;;32.07;30.55;100779.41;6060962;23;97553;-82
2022/09/04 09:51:05;;;;;;;3.90;3.45;;;;;;;32.01;30.72;100764.69;6038610;23;97111;-87
2022/09/04 09:54:15;;;;;;;7.57;3.13;;;;;;;31.66;31.60;100767.97;6039022;23;96813;-88
2022/09/04 09:57:12;;;;;;;4.05;3.38;;;;;;;31.26;31.46;100767.13;6084822;23;97861;-84
2022/09/04 09:59:54;;;;;;;5.32;3.60;;;;;;;31.33;31.88;100768.97;6060671;23;100973;-85
2022/09/04 10:02:32;;;;;;;4.13;3.30;;;;;;;31.55;32.43;100763.78;6012906;23;96705;-84
2022/09/04 10:05:13;;;;;;;4.93;3.55;;;;;;;30.46;32.29;100773.41;6036492;23;97152;-82
2022/09/04 10:07:52;;;;;;;3.88;3.00;;;;;;;29.71;33.49;100766.22;6036905;23;99104;-82
2022/09/04 10:10:36;;;;;;;4.78;3.28;;;;;;;29.72;34.18;100770.63;6088102;23;98102;-83
2022/09/04 10:13:41;;;;;;;4.70;3.13;;;;;;;29.25;34.81;100768.44;6084290;23;97615;-81
2022/09/04 10:16:28;;;;;;;4.03;3.40;;;;;;;28.87;35.42;100761.63;6030810;23;97006;-84
2022/09/04 10:19:15;;;;;;;5.05;3.80;;;;;;;28.27;36.12;100758.81;6056889;23;101871;-83
2022/09/04 10:22:05;;;;;;;3.63;3.30;;;;;;;27.82;36.96;100747.16;6058394;23;100964;-84
2022/09/04 10:24:49;;;;;;;5.85;3.53;;;;;;;27.93;37.82;100752.31;6083674;23;97220;-83
2022/09/04 10:27:24;;;;;;;5.22;3.80;;;;;;;27.82;36.96;100759.78;6084260;23;96809;-84
2022/09/04 10:30:05;;;;;;;3.65;2.80;;;;;;;27.69;37.31;100754.72;6056884;23;101530;-84
2022/09/04 10:32:31;;;;;;;4.78;3.22;;;;;;;27.23;38.02;100764.66;6033000;23;101256;-84
2022/09/04 10:35:24;;;;;;;5.75;3.40;;;;;;;26.85;38.54;100770.03;6057327;23;97074;-85
2022/09/04 10:38:01;;;;;;;4.32;3.30;;;;;;;26.49;39.10;100770.78;6034759;23;96783;-84
2022/09/04 10:40:42;;;;;;;5.38;3.35;;;;;;;26.28;39.48;100771.81;6033593;23;100898;-84
2022/09/04 10:43:45;;;;;;;3.72;3.17;;;;;;;26.40;40.61;100770.66;6033762;23;100478;-84
2022/09/04 10:46:25;;;;;;;4.90;3.30;;;;;;;26.21;40.26;100757.25;6057212;23;96809;-83
2022/09/04 10:49:15;;;;;;;4.35;3.28;;;;;;;25.99;40.47;100769.13;6036800;23;96782;-83
2022/09/04 10:51:44;;;;;;;4.70;3.72;;;;;;;25.50;40.63;100769.03;6034487;23;101232;-82
2022/09/04 10:54:29;;;;;;;4.35;3.10;;;;;;;25.37;42.21;100760.38;6034216;23;100820;-83
2022/09/04 10:57:22;;;;;;;4.40;3.03;;;;;;;25.19;42.92;100762.00;6036181;23;96833;-84
2022/09/04 10:59:57;;;;;;;3.83;3.20;;;;;;;24.89;42.34;100760.16;6061841;23;96812;-85
2022/09/04 11:02:32;;;;;;;5.68;3.13;;;;;;;24.83;43.12;100764.22;6057982;23;98729;-83
2022/09/04 11:05:14;;;;;;;5.00;2.83;;;;;;;24.78;43.21;100750.34;6035201;23;101096;-82
2022/09/04 11:07:50;;;;;;;4.45;3.25;;;;;;;24.73;43.31;100757.97;6035488;23;96709;-82
2022/09/04 11:10:25;;;;;;;5.13;3.38;;;;;;;24.52;44.21;100749.91;6036266;23;97140;-83
2022/09/04 11:12:53;;;;;;;4.45;3.58;;;;;;;24.51;44.48;100765.16;6036317;23;101129;-83
2022/09/04 11:15:56;;;;;;;5.05;3.38;;;;;;;24.18;43.69;100760.81;6059735;23;98385;-83
2022/09/04 11:18:32;;;;;;;5.78;3.75;;;;;;;24.10;44.01;100768.66;6036634;23;96927;-83
2022/09/04 11:21:29;;;;;;;7.57;3.58;;;;;;;23.93;44.88;100754.81;6060791;23;96745;-83
2022/09/04 11:23:55;;;;;;;4.95;3.70;;;;;;;23.80;44.71;100764.03;6010531;23;101475;-82
2022/09/04 11:26:26;;;;;;;5.10;3.22;;;;;;;23.68;44.92;100757.81;6037455;23;100907;-86
2022/09/04 11:29:47;;;;;;;5.45;3.42;;;;;;;23.38;45.96;100762.00;6062715;23;97162;-86
2022/09/04 11:32:24;;;;;;;4.07;3.20;;;;;;;23.49;45.81;100763.81;5951022;23;96776;-89
2022/09/04 11:35:18;;;;;;;4.60;3.45;;;;;;;23.54;46.55;100748.22;5901019;23;100666;-87
2022/09/04 11:38:11;;;;;;;4.28;3.30;;;;;;;23.47;46.11;100741.66;6005436;23;98389;-87
2022/09/04 11:40:42;;;;;;;6.22;3.83;;;;;;;23.46;46.15;100743.47;6037686;23;97172;-88
2022/09/04 11:43:27;;;;;;;7.18;3.63;;;;;;;23.47;46.79;100741.66;6038374;23;96694;-87
2022/09/04 11:46:33;;;;;;;6.43;3.47;;;;;;;23.34;46.89;100743.63;6063698;23;97632;-89
2022/09/04 11:49:14;;;;;;;5.78;3.20;;;;;;;23.39;47.61;100731.56;5983627;23;98317;-88
2022/09/04 11:52:22;;;;;;;4.47;3.30;;;;;;;23.31;46.58;100746.56;6038885;23;96694;-84
2022/09/04 11:54:57;;;;;;;3.72;3.42;;;;;;;23.45;46.55;100735.59;5944642;23;96914;-85
2022/09/04 11:57:34;;;;;;;3.92;3.17;;;;;;;23.39;46.97;100749.47;5921615;23;100278;-88
2022/09/04 12:00:08;;;;;;;5.30;3.22;;;;;;;23.36;47.47;100752.38;5968823;23;97502;-86
2022/09/04 12:03:05;;;;;;;3.85;3.08;;;;;;;23.36;47.30;100752.38;5921873;23;97540;-80
2022/09/04 12:05:39;;;;;;;4.55;3.05;;;;;;;23.45;47.53;100755.19;5912538;23;97115;-81
2022/09/04 12:08:43;;;;;;;3.17;2.72;;;;;;;23.23;47.07;100753.38;5922076;23;101393;-78
2022/09/04 12:11:15;;;;;;;4.10;3.03;;;;;;;23.18;46.82;100750.19;5922498;23;101390;-83
2022/09/04 12:14:14;;;;;;;5.85;3.17;;;;;;;23.46;47.03;100745.31;5939994;23;97407;-83
2022/09/04 12:16:58;;;;;;;4.00;2.92;;;;;;;23.39;47.10;100750.31;5942936;23;97014;-85
2022/09/04 12:20:02;;;;;;;3.90;2.75;;;;;;;23.42;47.19;100741.19;5938062;23;97717;-83
2022/09/04 12:22:35;;;;;;;4.10;2.83;;;;;;;23.45;46.52;100736.44;5965674;23;98515;-83
2022/09/04 12:25:20;;;;;;;3.30;2.85;;;;;;;23.36;47.04;100744.34;5994482;23;96803;-84
2022/09/04 12:27:52;;;;;;;5.65;3.08;;;;;;;23.17;46.25;100740.47;6032431;23;96748;-82
2022/09/04 12:30:19;;;;;;;4.97;3.10;;;;;;;23.09;47.18;100740.25;6056148;23;100034;-82
2022/09/04 12:33:02;;;;;;;4.68;2.92;;;;;;;23.13;46.69;100736.34;6008536;23;101451;-83
2022/09/04 12:36:06;;;;;;;5.30;2.72;;;;;;;23.25;47.48;100737.19;6008172;23;98008;-82
2022/09/04 12:39:09;;;;;;;4.88;2.67;;;;;;;23.26;47.04;100741.56;6033588;23;96961;-83
2022/09/04 12:41:40;;;;;;;3.58;2.90;;;;;;;23.03;47.15;100744.25;6083992;23;98086;-83